Alexandria, Alabama
Current Conditions -  °F | °C
As of 5:53 AM on Saturday 01 Nov 2014 (Local Time) from KANB Reporting Station
Overcast Overcast  
Wind Chill: 33°   Ceiling: 4300
Heat Index: 39°   Visibility: 10mi
Dew Point: 26°   Wind: 9mph
Humidity: 60%   Direction: 290°WNW
Pressure: 30.09"   Gusts: NA
Location:  33.77°N, 85.89°W
Report Text: KANB 011053Z AUTO 29008KT 260V320 10SM OVC043 04/M03 A3009 RMK AO2 SLP195 T00391033 $
Loading
Personal Weather Stations






























Interactive Weather Map
Tropical Storm Tracking
New forecast layout! Learn more

10-Day Weather Forecast

Advertisements
Track Severe Weather on mobile